Time;durP1;ratioP1;P1;durP2;ratioP2;P2;SDS_P1;SDS_P2;PMS_P1;PMS_P2;Temp;Humidity;BMP_temperature;BMP_pressure;BME280_temperature;BME280_humidity;BME280_pressure;Samples;Min_cycle;Max_cycle;Signal;HPM_P1;HPM_P2
2021/01/08 00:01:27;;;;;;;2.00;1.07;;;4.60;99.90;;;;;;5020783;28;20176;-84
2021/01/08 00:03:53;;;;;;;3.10;1.17;;;4.70;99.90;;;;;;5021653;28;20250;-84
2021/01/08 00:06:19;;;;;;;0.67;0.67;;;4.60;99.90;;;;;;5021547;28;20183;-84
2021/01/08 00:08:45;;;;;;;1.13;0.93;;;4.60;99.90;;;;;;5039520;28;20178;-84
2021/01/08 00:11:10;;;;;;;0.20;0.20;;;4.60;99.90;;;;;;5020535;28;20267;-84
2021/01/08 00:13:36;;;;;;;0.83;0.83;;;4.70;99.90;;;;;;5019461;28;20694;-83
2021/01/08 00:16:05;;;;;;;0.97;0.77;;;4.70;99.90;;;;;;5016864;28;20243;-83
2021/01/08 00:18:30;;;;;;;0.37;0.37;;;4.70;99.90;;;;;;5017748;28;20199;-83
2021/01/08 00:20:56;;;;;;;0.53;0.53;;;4.70;99.90;;;;;;5017153;28;20230;-84
2021/01/08 00:23:21;;;;;;;1.23;1.13;;;4.70;99.90;;;;;;5017466;28;20176;-84
2021/01/08 00:25:51;;;;;;;0.33;0.33;;;4.70;99.90;;;;;;5017340;28;20172;-83
2021/01/08 00:28:17;;;;;;;0.87;0.87;;;4.70;99.90;;;;;;5017453;28;20659;-83
2021/01/08 00:30:43;;;;;;;1.03;0.67;;;4.70;99.90;;;;;;5017193;28;20188;-84
2021/01/08 00:33:08;;;;;;;0.53;0.27;;;4.80;99.90;;;;;;5017319;28;20176;-83
2021/01/08 00:35:36;;;;;;;0.53;0.53;;;4.80;99.90;;;;;;5017752;28;20179;-84
2021/01/08 00:38:02;;;;;;;0.37;0.37;;;4.80;99.90;;;;;;5034972;28;20334;-83
2021/01/08 00:40:28;;;;;;;0.20;0.20;;;4.80;99.90;;;;;;5035546;28;20714;-84
2021/01/08 00:42:54;;;;;;;0.30;0.30;;;4.80;99.90;;;;;;5034999;28;20226;-84
2021/01/08 00:45:20;;;;;;;1.40;1.30;;;4.80;99.90;;;;;;5017580;28;20188;-84
2021/01/08 00:47:45;;;;;;;0.20;0.20;;;4.80;99.90;;;;;;5035798;28;20259;-84
2021/01/08 00:50:11;;;;;;;0.23;0.20;;;4.90;99.90;;;;;;5017794;28;20164;-83
2021/01/08 00:52:37;;;;;;;1.40;1.30;;;5.10;99.90;;;;;;5035535;28;20172;-84
2021/01/08 00:55:03;;;;;;;1.13;1.13;;;4.90;99.90;;;;;;5017901;28;20207;-84
2021/01/08 00:57:29;;;;;;;0.90;0.90;;;4.90;99.90;;;;;;5036133;28;20694;-83
2021/01/08 00:59:54;;;;;;;0.03;0.03;;;4.90;99.90;;;;;;5018204;28;20168;-84
2021/01/08 01:02:20;;;;;;;0.37;0.37;;;4.90;99.90;;;;;;5018833;28;20187;-84
2021/01/08 01:04:45;;;;;;;0.00;0.00;;;4.90;99.90;;;;;;5036517;28;20281;-84
2021/01/08 01:07:11;;;;;;;0.43;0.43;;;5.00;99.90;;;;;;5036787;28;20167;-83
2021/01/08 01:09:36;;;;;;;0.40;0.40;;;4.90;99.90;;;;;;5018931;28;20182;-84
2021/01/08 01:12:03;;;;;;;0.10;0.10;;;4.90;99.90;;;;;;5018845;28;20180;-84
2021/01/08 01:14:29;;;;;;;0.73;0.73;;;5.00;99.90;;;;;;5018410;28;20582;-84
2021/01/08 01:16:55;;;;;;;0.20;0.20;;;4.90;99.90;;;;;;5036870;28;20264;-84
2021/01/08 01:19:20;;;;;;;0.30;0.30;;;4.90;99.90;;;;;;5019151;28;20200;-84
2021/01/08 01:21:46;;;;;;;0.30;0.30;;;4.90;99.90;;;;;;5037128;28;20182;-84
2021/01/08 01:24:11;;;;;;;0.60;0.53;;;5.00;99.90;;;;;;5022973;28;20191;-84
2021/01/08 01:26:37;;;;;;;0.30;0.30;;;5.00;99.90;;;;;;5022791;28;20179;-84
2021/01/08 01:29:03;;;;;;;0.40;0.40;;;5.00;99.90;;;;;;5023169;28;20689;-84
2021/01/08 01:31:28;;;;;;;0.87;0.87;;;5.00;99.90;;;;;;5016590;28;20173;-84
2021/01/08 01:33:54;;;;;;;0.63;0.60;;;5.00;99.90;;;;;;5007686;28;20200;-84
2021/01/08 01:36:20;;;;;;;0.30;0.30;;;5.00;99.90;;;;;;5024199;28;20177;-84
2021/01/08 01:38:45;;;;;;;0.60;0.60;;;5.00;99.90;;;;;;5024022;28;20614;-84
2021/01/08 01:41:11;;;;;;;0.27;0.27;;;5.00;99.90;;;;;;5023560;28;20199;-84
2021/01/08 01:43:36;;;;;;;0.60;0.60;;;5.00;99.90;;;;;;5041705;28;20200;-84
2021/01/08 01:46:03;;;;;;;0.17;0.17;;;5.00;99.90;;;;;;5041903;28;20166;-84
2021/01/08 01:48:29;;;;;;;1.60;1.20;;;4.90;99.90;;;;;;5024209;28;20184;-84
2021/01/08 01:50:55;;;;;;;0.43;0.43;;;4.90;99.90;;;;;;5023777;28;20240;-84
2021/01/08 01:53:21;;;;;;;0.57;0.57;;;5.00;99.90;;;;;;5020967;28;20184;-83
2021/01/08 01:55:47;;;;;;;0.60;0.40;;;4.90;99.90;;;;;;5019451;28;20322;-84
2021/01/08 01:58:13;;;;;;;0.20;0.20;;;4.90;99.90;;;;;;5019946;28;20279;-83
2021/01/08 02:00:39;;;;;;;0.10;0.10;;;4.90;99.90;;;;;;5037248;28;20173;-82
2021/01/08 02:03:23;;;;;;;0.17;0.17;;;4.90;99.90;;;;;;5019967;28;20286;-83
2021/01/08 02:05:52;;;;;;;0.13;0.13;;;4.90;99.90;;;;;;5037773;28;20171;-83
2021/01/08 02:08:21;;;;;;;0.27;0.27;;;4.90;99.90;;;;;;5020041;28;20646;-83
2021/01/08 02:11:09;;;;;;;0.40;0.40;;;4.90;99.90;;;;;;5019406;28;20195;-84
2021/01/08 02:13:37;;;;;;;0.67;0.50;;;4.90;99.90;;;;;;5016091;28;20191;-83
2021/01/08 02:16:03;;;;;;;0.47;0.47;;;4.90;99.90;;;;;;5019628;28;20543;-83
2021/01/08 02:18:29;;;;;;;0.20;0.20;;;5.00;99.90;;;;;;5019567;28;20196;-84
2021/01/08 02:20:59;;;;;;;0.40;0.40;;;5.00;99.90;;;;;;5020036;28;20586;-83
2021/01/08 02:23:47;;;;;;;0.37;0.37;;;5.10;99.90;;;;;;5019796;28;20175;-84
2021/01/08 02:26:13;;;;;;;0.50;0.50;;;5.10;99.90;;;;;;5020074;28;20176;-83
2021/01/08 02:28:39;;;;;;;0.80;0.80;;;5.20;99.90;;;;;;5020229;28;20186;-83
2021/01/08 02:31:04;;;;;;;0.73;0.40;;;5.10;99.90;;;;;;5038217;28;20194;-83
2021/01/08 02:33:31;;;;;;;0.30;0.30;;;5.10;99.90;;;;;;5019794;28;20192;-83
2021/01/08 02:36:00;;;;;;;0.20;0.20;;;5.10;99.90;;;;;;5020126;28;20647;-84
2021/01/08 02:38:26;;;;;;;0.13;0.13;;;5.10;99.90;;;;;;5019815;28;20630;-84
2021/01/08 02:40:52;;;;;;;0.10;0.10;;;5.10;99.90;;;;;;5020489;28;20172;-84
2021/01/08 02:43:23;;;;;;;0.20;0.20;;;5.00;99.90;;;;;;5020729;28;20310;-84
2021/01/08 02:45:52;;;;;;;1.10;0.50;;;5.00;99.90;;;;;;5038384;28;20583;-84
2021/01/08 02:48:19;;;;;;;0.63;0.63;;;5.00;99.90;;;;;;5020554;28;20184;-84
2021/01/08 02:50:45;;;;;;;0.27;0.27;;;5.00;99.90;;;;;;5020529;28;20178;-84
2021/01/08 02:53:14;;;;;;;0.47;0.43;;;5.00;99.90;;;;;;5020794;28;20180;-84
2021/01/08 02:55:48;;;;;;;0.23;0.23;;;5.10;99.90;;;;;;5020741;28;20184;-84
2021/01/08 02:58:14;;;;;;;0.87;0.63;;;5.00;99.90;;;;;;5021076;28;20192;-84
2021/01/08 03:00:41;;;;;;;0.33;0.33;;;5.00;99.90;;;;;;5020881;28;20178;-84
2021/01/08 03:03:07;;;;;;;0.00;0.00;;;5.00;99.90;;;;;;5021276;28;20168;-83
2021/01/08 03:05:34;;;;;;;1.73;1.00;;;5.00;99.90;;;;;;5020880;28;20204;-83
2021/01/08 03:08:00;;;;;;;0.13;0.13;;;5.00;99.90;;;;;;5039124;28;20199;-84
2021/01/08 03:10:26;;;;;;;0.23;0.23;;;5.00;99.90;;;;;;5039745;28;20235;-83
2021/01/08 03:13:02;;;;;;;0.33;0.33;;;4.90;99.90;;;;;;5021683;28;20180;-84
2021/01/08 03:15:28;;;;;;;0.60;0.60;;;5.00;99.90;;;;;;5039765;28;20201;-84
2021/01/08 03:17:54;;;;;;;0.83;0.83;;;5.00;99.90;;;;;;5021624;28;20558;-84
2021/01/08 03:20:19;;;;;;;0.47;0.47;;;5.00;99.90;;;;;;5022057;28;20164;-84
2021/01/08 03:22:45;;;;;;;0.53;0.43;;;5.10;99.90;;;;;;5022692;28;20667;-84
2021/01/08 03:25:12;;;;;;;0.50;0.47;;;5.10;99.90;;;;;;5022398;28;20196;-84
2021/01/08 03:27:37;;;;;;;0.53;0.53;;;5.10;99.90;;;;;;5022856;28;20636;-84
2021/01/08 03:30:07;;;;;;;0.73;0.57;;;5.10;99.90;;;;;;5039734;28;20194;-84
2021/01/08 03:32:33;;;;;;;0.30;0.30;;;5.10;99.90;;;;;;5020807;28;20180;-82
2021/01/08 03:34:59;;;;;;;0.67;0.67;;;5.00;99.90;;;;;;5036579;28;20193;-82
2021/01/08 03:37:24;;;;;;;0.30;0.30;;;5.00;99.90;;;;;;5019124;28;20186;-82
2021/01/08 03:39:50;;;;;;;0.53;0.53;;;5.10;99.90;;;;;;5018935;28;20183;-82
2021/01/08 03:42:15;;;;;;;0.40;0.37;;;5.10;99.90;;;;;;5019078;28;20640;-82
2021/01/08 03:44:41;;;;;;;0.30;0.30;;;5.10;99.90;;;;;;5037289;28;20240;-83
2021/01/08 03:47:06;;;;;;;0.77;0.77;;;5.10;99.90;;;;;;5037638;28;20175;-82
2021/01/08 03:49:37;;;;;;;1.03;1.03;;;5.10;99.90;;;;;;5019647;28;20599;-82
2021/01/08 03:52:07;;;;;;;0.63;0.47;;;5.10;99.90;;;;;;5020158;28;20664;-82
2021/01/08 03:54:34;;;;;;;0.43;0.43;;;5.10;99.90;;;;;;5037876;28;20201;-82
2021/01/08 03:57:00;;;;;;;1.23;1.20;;;5.00;99.90;;;;;;5038399;28;20168;-82
2021/01/08 03:59:26;;;;;;;0.30;0.30;;;5.00;99.90;;;;;;5038316;28;20577;-82
2021/01/08 04:01:51;;;;;;;1.13;1.13;;;5.10;99.90;;;;;;5038182;28;20204;-82
2021/01/08 04:04:17;;;;;;;2.10;2.00;;;5.20;99.90;;;;;;5019922;28;20219;-82
2021/01/08 04:06:42;;;;;;;0.80;0.80;;;5.20;99.90;;;;;;5020997;28;20181;-82
2021/01/08 04:09:08;;;;;;;0.30;0.30;;;5.10;99.90;;;;;;5020491;28;20508;-82
2021/01/08 04:11:33;;;;;;;0.00;0.00;;;5.10;99.90;;;;;;5021331;28;20559;-82
2021/01/08 04:13:59;;;;;;;0.50;0.50;;;5.10;99.90;;;;;;5021715;28;20548;-82
2021/01/08 04:16:34;;;;;;;0.17;0.17;;;5.00;99.90;;;;;;5039909;28;20241;-82
2021/01/08 04:19:00;;;;;;;0.60;0.60;;;5.00;99.90;;;;;;5021653;28;20271;-82
2021/01/08 04:21:26;;;;;;;2.53;1.03;;;5.00;99.90;;;;;;5022232;28;20168;-82
2021/01/08 04:23:51;;;;;;;0.30;0.30;;;5.00;99.90;;;;;;5039831;28;20185;-82
2021/01/08 04:26:17;;;;;;;0.00;0.00;;;5.00;99.90;;;;;;5039980;28;20176;-82
2021/01/08 04:28:42;;;;;;;0.87;0.83;;;5.10;99.90;;;;;;5022243;28;20180;-82
2021/01/08 04:31:08;;;;;;;0.57;0.57;;;5.10;99.90;;;;;;5040890;28;20212;-82
2021/01/08 04:33:33;;;;;;;0.23;0.20;;;5.00;99.90;;;;;;5022368;28;20204;-82
2021/01/08 04:35:59;;;;;;;0.57;0.57;;;5.00;99.90;;;;;;5041338;28;20180;-82
2021/01/08 04:38:24;;;;;;;1.03;1.03;;;5.00;99.90;;;;;;5041395;28;20207;-82
2021/01/08 04:40:50;;;;;;;0.67;0.67;;;5.00;99.90;;;;;;5023945;28;20172;-82
2021/01/08 04:43:16;;;;;;;0.87;0.87;;;4.90;99.90;;;;;;5042201;28;20180;-82
2021/01/08 04:45:42;;;;;;;0.10;0.10;;;4.90;99.90;;;;;;5042217;28;20180;-82
2021/01/08 04:48:09;;;;;;;0.70;0.70;;;5.00;99.90;;;;;;5042883;28;20183;-82
2021/01/08 04:50:35;;;;;;;0.30;0.30;;;5.00;99.90;;;;;;5025188;28;20652;-83
2021/01/08 04:53:01;;;;;;;0.20;0.20;;;5.00;99.90;;;;;;5042676;28;20180;-82
2021/01/08 04:55:30;;;;;;;0.20;0.20;;;5.00;99.90;;;;;;5025439;28;20250;-82
2021/01/08 04:57:58;;;;;;;0.10;0.10;;;5.00;99.90;;;;;;5027039;28;20295;-82
2021/01/08 05:00:24;;;;;;;0.10;0.10;;;5.00;99.90;;;;;;5030487;28;20186;-82
2021/01/08 05:02:51;;;;;;;0.30;0.30;;;5.00;99.90;;;;;;5030879;28;20194;-82
2021/01/08 05:05:19;;;;;;;0.67;0.53;;;5.10;99.90;;;;;;5048372;28;20201;-82
2021/01/08 05:07:45;;;;;;;0.40;0.40;;;5.10;99.90;;;;;;5031244;28;20703;-83
2021/01/08 05:10:11;;;;;;;0.23;0.23;;;5.10;99.90;;;;;;5047472;28;20175;-82
2021/01/08 05:12:41;;;;;;;0.53;0.53;;;5.20;99.90;;;;;;5021381;28;20263;-82
2021/01/08 05:15:16;;;;;;;0.30;0.30;;;5.20;99.90;;;;;;5039277;28;20195;-82
2021/01/08 05:17:43;;;;;;;0.67;0.63;;;5.20;99.90;;;;;;5040123;28;20564;-82
2021/01/08 05:20:10;;;;;;;0.57;0.57;;;5.20;99.90;;;;;;5021279;28;20707;-82
2021/01/08 05:22:38;;;;;;;0.80;0.57;;;5.10;99.90;;;;;;5021052;28;20172;-82
2021/01/08 05:25:11;;;;;;;0.20;0.20;;;5.00;99.90;;;;;;5040340;28;20715;-82
2021/01/08 05:27:38;;;;;;;0.73;0.73;;;5.00;99.90;;;;;;5022271;28;20176;-82
2021/01/08 05:30:25;;;;;;;0.67;0.53;;;4.90;99.90;;;;;;5039577;23;20214;-83
2021/01/08 05:33:04;;;;;;;0.83;0.27;;;5.00;99.90;;;;;;5061661;28;20156;-83
2021/01/08 05:35:32;;;;;;;0.33;0.33;;;4.90;99.90;;;;;;5024429;28;20222;-83
2021/01/08 05:38:04;;;;;;;0.93;0.77;;;4.90;99.90;;;;;;5024754;28;20226;-83
2021/01/08 05:40:30;;;;;;;0.40;0.40;;;4.90;99.90;;;;;;5025025;28;20627;-83
2021/01/08 05:43:00;;;;;;;0.87;0.87;;;4.80;99.90;;;;;;5025108;28;20175;-84
2021/01/08 05:45:27;;;;;;;0.20;0.20;;;4.80;99.90;;;;;;5025217;28;20728;-83
2021/01/08 05:47:56;;;;;;;0.10;0.10;;;4.90;99.90;;;;;;5024757;28;20659;-83
2021/01/08 05:50:24;;;;;;;0.60;0.60;;;4.90;99.90;;;;;;5037468;28;20179;-83
2021/01/08 05:53:04;;;;;;;0.20;0.20;;;4.90;99.90;;;;;;5037910;28;20177;-83
2021/01/08 05:55:33;;;;;;;0.57;0.57;;;5.00;99.90;;;;;;5019596;28;20192;-83
2021/01/08 05:57:59;;;;;;;0.10;0.10;;;5.10;99.90;;;;;;5020139;28;20204;-83
2021/01/08 06:00:24;;;;;;;0.10;0.10;;;5.00;99.90;;;;;;5037608;28;20168;-83
2021/01/08 06:02:52;;;;;;;0.53;0.53;;;5.00;99.90;;;;;;5020138;28;20289;-83
2021/01/08 06:05:19;;;;;;;0.77;0.73;;;4.90;99.90;;;;;;5019953;28;20196;-83
2021/01/08 06:07:49;;;;;;;1.03;1.03;;;4.90;99.90;;;;;;5020472;28;20169;-83
2021/01/08 06:10:18;;;;;;;1.20;1.20;;;4.90;99.90;;;;;;5020007;28;20176;-83
2021/01/08 06:12:44;;;;;;;0.10;0.10;;;4.90;99.90;;;;;;5037956;28;20177;-83
2021/01/08 06:15:16;;;;;;;1.30;0.40;;;4.90;99.90;;;;;;5039195;28;20188;-83
2021/01/08 06:17:49;;;;;;;0.60;0.60;;;4.90;99.90;;;;;;5038037;28;20292;-83
2021/01/08 06:20:14;;;;;;;0.20;0.20;;;4.90;99.90;;;;;;5019898;28;20166;-83
2021/01/08 06:22:41;;;;;;;0.57;0.57;;;5.00;99.90;;;;;;5038296;28;20263;-83
2021/01/08 06:25:09;;;;;;;0.77;0.77;;;4.90;99.90;;;;;;5019982;28;20192;-83
2021/01/08 06:27:36;;;;;;;0.77;0.60;;;4.80;99.90;;;;;;5038021;28;20180;-83
2021/01/08 06:30:05;;;;;;;0.77;0.77;;;4.80;99.90;;;;;;5038354;28;20184;-83
2021/01/08 06:32:31;;;;;;;0.57;0.57;;;4.80;99.90;;;;;;5038649;28;20168;-83
2021/01/08 06:35:08;;;;;;;1.60;0.80;;;4.80;99.90;;;;;;5020747;28;20199;-83
2021/01/08 06:37:41;;;;;;;1.13;0.47;;;4.80;99.90;;;;;;5020639;28;20685;-83
2021/01/08 06:40:09;;;;;;;0.30;0.30;;;4.70;99.90;;;;;;5020693;28;20165;-83
2021/01/08 06:42:43;;;;;;;0.27;0.10;;;4.70;99.90;;;;;;5038880;28;20252;-83
2021/01/08 06:45:13;;;;;;;1.07;1.07;;;4.70;99.90;;;;;;5021347;28;20713;-83
2021/01/08 06:47:43;;;;;;;1.50;0.63;;;4.70;99.90;;;;;;5021373;28;20241;-83
2021/01/08 06:50:15;;;;;;;0.57;0.43;;;4.70;99.90;;;;;;5021059;28;20175;-83
2021/01/08 06:52:44;;;;;;;0.40;0.40;;;4.70;99.90;;;;;;5039579;28;20164;-83
2021/01/08 06:55:14;;;;;;;0.63;0.53;;;4.70;99.90;;;;;;5039743;28;20180;-83
2021/01/08 06:57:48;;;;;;;0.77;0.77;;;4.80;99.90;;;;;;5021501;28;20287;-83
2021/01/08 07:00:20;;;;;;;0.50;0.50;;;4.80;99.90;;;;;;5039949;28;20709;-83
2021/01/08 07:02:49;;;;;;;0.67;0.67;;;4.80;99.90;;;;;;5021993;28;20160;-83
2021/01/08 07:05:17;;;;;;;0.07;0.07;;;4.80;99.90;;;;;;5021821;28;20192;-83
2021/01/08 07:07:43;;;;;;;0.40;0.40;;;4.80;99.90;;;;;;5022697;28;20599;-83
2021/01/08 07:10:09;;;;;;;0.17;0.17;;;4.80;99.90;;;;;;5040493;28;20210;-83
2021/01/08 07:12:34;;;;;;;0.03;0.03;;;4.80;99.90;;;;;;5022475;28;20181;-83
2021/01/08 07:15:00;;;;;;;0.33;0.33;;;4.80;99.90;;;;;;5022817;28;20188;-83
2021/01/08 07:17:33;;;;;;;0.17;0.10;;;4.80;99.90;;;;;;5022387;28;20176;-84
2021/01/08 07:20:00;;;;;;;0.23;0.20;;;4.90;99.90;;;;;;5022756;28;20172;-84
2021/01/08 07:22:32;;;;;;;0.00;0.00;;;4.70;99.90;;;;;;5040650;28;20191;-83
2021/01/08 07:24:58;;;;;;;0.00;0.00;;;4.70;99.90;;;;;;5042072;28;20279;-84
2021/01/08 07:27:25;;;;;;;0.50;0.50;;;4.70;99.90;;;;;;5037640;28;20247;-83
2021/01/08 07:29:55;;;;;;;0.43;0.17;;;4.60;99.90;;;;;;5035958;28;20188;-83
2021/01/08 07:32:47;;;;;;;2.00;1.27;;;4.70;99.90;;;;;;5036271;28;20242;-83
2021/01/08 07:35:22;;;;;;;0.43;0.43;;;4.60;99.90;;;;;;5018168;28;20188;-83
2021/01/08 07:38:02;;;;;;;0.07;0.07;;;4.70;99.90;;;;;;5018149;28;20192;-83
2021/01/08 07:40:39;;;;;;;0.10;0.10;;;4.70;99.90;;;;;;5018495;28;20167;-83
2021/01/08 07:43:08;;;;;;;1.30;0.60;;;4.70;99.90;;;;;;5034515;28;20568;-82
2021/01/08 07:45:51;;;;;;;0.87;0.87;;;4.80;99.90;;;;;;5035944;28;20160;-83
2021/01/08 07:48:26;;;;;;;0.30;0.30;;;4.70;99.90;;;;;;5005776;28;20172;-83
2021/01/08 07:51:03;;;;;;;0.00;0.00;;;4.70;99.90;;;;;;5018398;28;20195;-83
2021/01/08 07:53:41;;;;;;;0.00;0.00;;;4.60;99.90;;;;;;5036618;28;20702;-83
2021/01/08 07:56:15;;;;;;;0.57;0.57;;;4.70;99.90;;;;;;5036869;28;20180;-83
2021/01/08 07:58:41;;;;;;;0.00;0.00;;;4.90;99.90;;;;;;5018655;28;20192;-83
2021/01/08 08:01:09;;;;;;;0.17;0.17;;;4.80;99.90;;;;;;5018925;28;20172;-83
2021/01/08 08:03:35;;;;;;;0.20;0.20;;;4.80;99.90;;;;;;5018894;28;20725;-83
2021/01/08 08:06:02;;;;;;;0.10;0.10;;;4.80;99.90;;;;;;5036713;28;20175;-82
2021/01/08 08:08:28;;;;;;;0.23;0.23;;;4.80;99.90;;;;;;5012678;28;20579;-87
2021/01/08 08:11:13;;;;;;;0.27;0.27;;;4.70;99.90;;;;;;5035540;28;20180;-82
2021/01/08 08:13:39;;;;;;;0.10;0.10;;;4.80;99.90;;;;;;5035330;28;20238;-83
2021/01/08 08:16:05;;;;;;;0.07;0.07;;;4.90;99.90;;;;;;5037823;28;20168;-83
2021/01/08 08:18:31;;;;;;;0.37;0.37;;;4.90;99.90;;;;;;5020274;28;20200;-83
2021/01/08 08:21:10;;;;;;;0.47;0.47;;;4.80;99.90;;;;;;5038711;28;20175;-83
2021/01/08 08:23:36;;;;;;;0.30;0.30;;;4.80;99.90;;;;;;5030091;28;20195;-80
2021/01/08 08:26:03;;;;;;;0.10;0.10;;;4.90;99.90;;;;;;5037526;28;20175;-83
2021/01/08 08:28:28;;;;;;;0.20;0.20;;;5.00;99.90;;;;;;5019375;28;20175;-85
2021/01/08 08:30:54;;;;;;;0.37;0.37;;;5.00;99.90;;;;;;5019174;28;20206;-82
2021/01/08 08:33:22;;;;;;;0.20;0.20;;;5.00;99.90;;;;;;5035465;28;20176;-82
2021/01/08 08:35:48;;;;;;;0.50;0.50;;;5.00;99.90;;;;;;5035614;28;20176;-82
2021/01/08 08:38:13;;;;;;;0.30;0.30;;;5.10;99.90;;;;;;5036438;28;20646;-82
2021/01/08 08:40:39;;;;;;;0.00;0.00;;;5.10;99.90;;;;;;5018645;28;20206;-82
2021/01/08 08:43:05;;;;;;;0.50;0.30;;;5.00;99.90;;;;;;5018183;28;20182;-83
2021/01/08 08:45:32;;;;;;;0.30;0.30;;;5.00;99.90;;;;;;5036368;28;20183;-82
2021/01/08 08:48:07;;;;;;;0.30;0.30;;;5.00;99.90;;;;;;5035658;28;20278;-82
2021/01/08 08:50:34;;;;;;;1.20;1.10;;;5.00;99.90;;;;;;5018911;28;20183;-82
2021/01/08 08:53:11;;;;;;;0.00;0.00;;;4.90;99.90;;;;;;5036325;28;20517;-83
2021/01/08 08:55:37;;;;;;;0.30;0.20;;;5.00;99.90;;;;;;5018287;28;20164;-83
2021/01/08 08:58:05;;;;;;;2.00;0.37;;;5.10;99.90;;;;;;5018700;28;20188;-88
2021/01/08 09:00:34;;;;;;;0.40;0.40;;;5.10;99.90;;;;;;5036375;28;20175;-83
2021/01/08 09:03:00;;;;;;;0.33;0.33;;;5.10;99.90;;;;;;5036146;28;20568;-81
2021/01/08 09:05:30;;;;;;;0.10;0.10;;;5.10;99.90;;;;;;5017517;28;20250;-80
2021/01/08 09:08:02;;;;;;;0.20;0.20;;;5.20;99.90;;;;;;5034266;28;20255;-81
2021/01/08 09:10:32;;;;;;;0.83;0.77;;;5.20;99.90;;;;;;5016443;28;20175;-81
2021/01/08 09:13:09;;;;;;;0.20;0.20;;;5.10;99.90;;;;;;5034450;28;20200;-81
2021/01/08 09:15:47;;;;;;;0.17;0.13;;;5.10;99.90;;;;;;5016879;28;20175;-83
2021/01/08 09:18:33;;;;;;;0.43;0.43;;;5.20;99.90;;;;;;5016725;28;20200;-81
2021/01/08 09:21:05;;;;;;;0.40;0.40;;;5.20;99.90;;;;;;5034797;28;20153;-81
2021/01/08 09:23:35;;;;;;;0.30;0.30;;;5.20;99.90;;;;;;5035001;28;20351;-81
2021/01/08 09:26:05;;;;;;;0.43;0.43;;;5.20;99.90;;;;;;5016989;28;20521;-81
2021/01/08 09:28:45;;;;;;;0.67;0.37;;;5.30;99.90;;;;;;5034982;28;20236;-80
2021/01/08 09:31:11;;;;;;;1.60;0.90;;;5.30;99.90;;;;;;5034504;28;20195;-80
2021/01/08 09:33:37;;;;;;;0.40;0.40;;;5.30;99.90;;;;;;5016984;28;20202;-80
2021/01/08 09:36:04;;;;;;;0.93;0.57;;;5.30;99.90;;;;;;5035302;28;20628;-80
2021/01/08 09:38:30;;;;;;;1.33;0.70;;;5.30;99.90;;;;;;5016977;28;20203;-81
2021/01/08 09:40:57;;;;;;;0.10;0.10;;;5.30;99.90;;;;;;5036069;28;20173;-83
2021/01/08 09:43:23;;;;;;;1.40;0.67;;;5.30;99.90;;;;;;5018127;28;20168;-84
2021/01/08 09:46:03;;;;;;;0.83;0.83;;;5.40;99.90;;;;;;5021634;28;20228;-84
2021/01/08 09:48:29;;;;;;;0.80;0.80;;;5.40;99.90;;;;;;5040293;28;20171;-87
2021/01/08 09:51:05;;;;;;;0.00;0.00;;;5.50;99.90;;;;;;5022625;28;20180;-82
2021/01/08 09:53:34;;;;;;;0.43;0.43;;;5.40;99.90;;;;;;5039031;28;20226;-83
2021/01/08 09:56:29;;;;;;;0.10;0.10;;;5.50;99.90;;;;;;5039566;28;20232;-84
2021/01/08 09:59:30;;;;;;;1.92;0.93;;;5.50;99.90;;;;;;5003387;28;20925;-83
2021/01/08 10:04:29;;;;;;;0.20;0.20;;;5.40;99.90;;;;;;5024372;28;20242;-82
2021/01/08 10:07:00;;;;;;;0.30;0.30;;;5.30;99.90;;;;;;5022445;28;20212;-82
2021/01/08 10:09:26;;;;;;;0.53;0.40;;;5.30;99.90;;;;;;5040491;28;20288;-82
2021/01/08 10:11:59;;;;;;;0.30;0.20;;;5.40;99.90;;;;;;5022045;28;20227;-81
2021/01/08 10:14:33;;;;;;;0.17;0.10;;;5.60;99.90;;;;;;5021655;28;20211;-83
2021/01/08 10:17:13;;;;;;;0.33;0.30;;;5.60;99.90;;;;;;5021250;28;20185;-83
2021/01/08 10:19:40;;;;;;;0.00;0.00;;;5.60;99.90;;;;;;5038254;28;20198;-84
2021/01/08 10:22:06;;;;;;;1.27;1.17;;;5.70;99.90;;;;;;5022928;28;20176;-83
2021/01/08 10:24:32;;;;;;;0.23;0.23;;;5.70;99.90;;;;;;5039581;28;20750;-84
2021/01/08 10:26:57;;;;;;;0.83;0.73;;;5.60;99.90;;;;;;5020298;28;20178;-84
2021/01/08 10:29:31;;;;;;;0.40;0.40;;;5.70;99.90;;;;;;5037886;28;20283;-84
2021/01/08 10:31:57;;;;;;;0.77;0.77;;;5.70;99.90;;;;;;5019640;28;20190;-85
2021/01/08 10:34:26;;;;;;;0.30;0.30;;;5.80;99.90;;;;;;5019129;28;20670;-85
2021/01/08 10:36:51;;;;;;;0.00;0.00;;;5.80;99.90;;;;;;5019508;28;20187;-84
2021/01/08 10:39:17;;;;;;;2.90;0.83;;;5.70;99.90;;;;;;5018788;28;20206;-84
2021/01/08 10:41:42;;;;;;;0.00;0.00;;;5.70;99.90;;;;;;5019528;28;20173;-84
2021/01/08 10:44:08;;;;;;;0.03;0.03;;;5.70;99.90;;;;;;5019540;28;20197;-84
2021/01/08 10:46:33;;;;;;;0.03;0.03;;;5.70;99.90;;;;;;5035960;28;20177;-84
2021/01/08 10:48:59;;;;;;;0.03;0.03;;;5.60;99.90;;;;;;5018147;28;20182;-83
2021/01/08 10:51:28;;;;;;;2.13;0.83;;;5.60;99.90;;;;;;5018387;28;20220;-84
2021/01/08 10:53:53;;;;;;;0.90;0.63;;;5.60;99.90;;;;;;5035670;28;20256;-85
2021/01/08 10:56:31;;;;;;;0.57;0.57;;;5.60;99.90;;;;;;5018083;28;20179;-84
2021/01/08 10:58:57;;;;;;;0.10;0.10;;;5.70;99.90;;;;;;5019195;28;20207;-81
2021/01/08 11:01:23;;;;;;;0.37;0.37;;;5.60;99.90;;;;;;5037162;28;20260;-82
2021/01/08 11:03:49;;;;;;;0.40;0.40;;;5.60;99.90;;;;;;5018960;28;20189;-82
2021/01/08 11:06:16;;;;;;;0.20;0.20;;;5.60;99.90;;;;;;5037021;28;20213;-84
2021/01/08 11:08:42;;;;;;;1.13;0.60;;;5.60;99.90;;;;;;5036855;28;20637;-83
2021/01/08 11:11:07;;;;;;;0.57;0.57;;;5.60;99.90;;;;;;5036750;28;20304;-83
2021/01/08 11:13:33;;;;;;;0.23;0.23;;;5.60;99.90;;;;;;5018586;28;20333;-84
2021/01/08 11:15:58;;;;;;;0.77;0.77;;;5.60;99.90;;;;;;5019190;28;20259;-84
2021/01/08 11:18:25;;;;;;;0.20;0.10;;;5.60;99.90;;;;;;5019179;28;20198;-82
2021/01/08 11:20:50;;;;;;;0.83;0.60;;;5.60;99.90;;;;;;5019698;28;20174;-83
2021/01/08 11:23:16;;;;;;;0.10;0.10;;;5.70;99.90;;;;;;5037822;28;20275;-83
2021/01/08 11:25:42;;;;;;;0.30;0.30;;;5.70;99.90;;;;;;5037453;28;20173;-81
2021/01/08 11:28:08;;;;;;;0.40;0.40;;;5.70;99.90;;;;;;5019758;28;20202;-80
2021/01/08 11:30:33;;;;;;;1.03;0.40;;;5.70;99.90;;;;;;5061894;23;20710;-82
2021/01/08 11:33:00;;;;;;;0.23;0.23;;;5.70;99.90;;;;;;5055461;28;20179;-81
2021/01/08 11:35:25;;;;;;;0.53;0.53;;;5.70;99.90;;;;;;5056393;28;20190;-83
2021/01/08 11:37:52;;;;;;;0.30;0.30;;;5.60;99.90;;;;;;5057228;28;20233;-84
2021/01/08 11:40:18;;;;;;;0.00;0.00;;;5.60;99.90;;;;;;5055921;28;20164;-82
2021/01/08 11:42:43;;;;;;;0.10;0.10;;;5.60;99.90;;;;;;5056163;28;20665;-80
2021/01/08 11:45:09;;;;;;;0.67;0.67;;;5.60;99.90;;;;;;5054530;28;20262;-80
2021/01/08 11:47:35;;;;;;;0.20;0.20;;;5.60;99.90;;;;;;5056833;28;20172;-80
2021/01/08 11:50:02;;;;;;;0.10;0.10;;;5.60;99.90;;;;;;5054879;28;20179;-81
2021/01/08 11:52:29;;;;;;;0.20;0.20;;;5.50;99.90;;;;;;5055224;28;20224;-81
2021/01/08 11:54:55;;;;;;;0.87;0.87;;;5.60;99.90;;;;;;5056094;28;20187;-81
2021/01/08 11:57:20;;;;;;;0.13;0.13;;;5.60;99.90;;;;;;5054515;28;20186;-83
2021/01/08 11:59:46;;;;;;;0.10;0.10;;;5.50;99.90;;;;;;5056928;28;20206;-82
2021/01/08 12:02:11;;;;;;;0.27;0.27;;;5.50;99.90;;;;;;5055524;28;20190;-84
2021/01/08 12:04:37;;;;;;;0.53;0.43;;;5.50;99.90;;;;;;5054254;28;20210;-79
2021/01/08 12:07:03;;;;;;;0.63;0.63;;;5.50;99.90;;;;;;5053192;28;20655;-80
2021/01/08 12:09:31;;;;;;;1.03;0.97;;;5.50;99.90;;;;;;5053901;28;20181;-81
2021/01/08 12:11:59;;;;;;;0.20;0.20;;;5.50;99.90;;;;;;5053630;28;20171;-82
2021/01/08 12:14:24;;;;;;;0.30;0.30;;;5.60;99.90;;;;;;5053879;28;20624;-80
2021/01/08 12:16:50;;;;;;;0.23;0.23;;;5.60;99.90;;;;;;5057309;28;20177;-80
2021/01/08 12:19:17;;;;;;;0.50;0.47;;;5.60;99.90;;;;;;5055093;28;20192;-82
2021/01/08 12:21:49;;;;;;;0.57;0.57;;;5.60;99.90;;;;;;5053456;28;20173;-81
2021/01/08 12:24:15;;;;;;;0.47;0.47;;;5.70;99.90;;;;;;5054224;28;20242;-84
2021/01/08 12:26:41;;;;;;;0.37;0.37;;;5.80;99.90;;;;;;5054436;28;20164;-83
2021/01/08 12:29:08;;;;;;;0.10;0.10;;;5.80;99.90;;;;;;5055745;28;20586;-82
2021/01/08 12:31:34;;;;;;;2.10;0.57;;;5.80;99.90;;;;;;5056033;28;20186;-85
2021/01/08 12:34:00;;;;;;;0.87;0.30;;;5.90;99.90;;;;;;5053477;28;20688;-85
2021/01/08 12:36:26;;;;;;;1.03;0.43;;;5.90;99.90;;;;;;5053312;28;20179;-83
2021/01/08 12:38:52;;;;;;;0.33;0.33;;;5.90;99.90;;;;;;5053994;28;20226;-82
2021/01/08 12:41:17;;;;;;;0.13;0.13;;;6.00;99.90;;;;;;5055040;28;20198;-83
2021/01/08 12:43:45;;;;;;;0.10;0.10;;;5.90;99.90;;;;;;5053594;28;20188;-81
2021/01/08 12:46:11;;;;;;;1.13;1.03;;;5.90;99.90;;;;;;5053465;28;20178;-82
2021/01/08 12:48:37;;;;;;;0.93;0.93;;;5.90;99.90;;;;;;5053202;28;20254;-82
2021/01/08 12:51:02;;;;;;;0.37;0.37;;;5.80;99.90;;;;;;5053435;28;20539;-82
2021/01/08 12:53:28;;;;;;;0.33;0.23;;;5.90;99.90;;;;;;5053634;28;20198;-80
2021/01/08 12:55:53;;;;;;;0.40;0.33;;;5.80;99.90;;;;;;5055234;28;20179;-81
2021/01/08 12:58:19;;;;;;;0.40;0.40;;;5.80;99.90;;;;;;5055216;28;20229;-80
2021/01/08 13:00:48;;;;;;;0.37;0.10;;;5.80;99.90;;;;;;5053677;28;20201;-81
2021/01/08 13:03:14;;;;;;;0.30;0.27;;;5.80;99.90;;;;;;5054838;28;20569;-81
2021/01/08 13:05:39;;;;;;;0.83;0.30;;;5.80;99.90;;;;;;5057148;28;20169;-81